createdAt,value
2022-11-25T00:00:24.282Z,99662.25
2022-11-25T00:02:50.915Z,99664.72
2022-11-25T00:05:17.691Z,99662.88
2022-11-25T00:07:44.395Z,99677.00
2022-11-25T00:10:11.063Z,99674.38
2022-11-25T00:12:37.611Z,99671.81
2022-11-25T00:15:04.537Z,99663.63
2022-11-25T00:17:31.275Z,99662.25
2022-11-25T00:20:01.540Z,99660.94
2022-11-25T00:22:28.164Z,99662.19
2022-11-25T00:24:54.657Z,99666.13
2022-11-25T00:27:21.214Z,99666.16
2022-11-25T00:29:47.994Z,99669.88
2022-11-25T00:32:14.480Z,99675.53
2022-11-25T00:34:41.006Z,99668.81
2022-11-25T00:37:07.936Z,99676.47
2022-11-25T00:39:34.426Z,99676.44
2022-11-25T00:42:19.529Z,99677.69
2022-11-25T00:44:46.115Z,99669.53
2022-11-25T00:47:18.295Z,99676.44
2022-11-25T00:49:47.909Z,99681.06
2022-11-25T00:52:19.855Z,99670.41
2022-11-25T00:54:47.756Z,99680.63
2022-11-25T00:57:15.665Z,99687.00
2022-11-25T00:59:42.213Z,99686.53
2022-11-25T01:02:08.880Z,99682.44
2022-11-25T01:04:35.984Z,99676.13
2022-11-25T01:07:02.751Z,99676.06
2022-11-25T01:09:29.694Z,99684.97
2022-11-25T01:11:56.575Z,99672.88
2022-11-25T01:14:23.873Z,99679.41
2022-11-25T01:16:50.486Z,99679.75
2022-11-25T01:19:18.573Z,99678.13
2022-11-25T01:21:45.527Z,99685.56
2022-11-25T01:24:14.455Z,99686.38
2022-11-25T01:26:42.059Z,99687.56
2022-11-25T01:29:15.461Z,99689.59
2022-11-25T01:31:42.684Z,99695.28
2022-11-25T01:34:14.991Z,99700.19
2022-11-25T01:36:41.878Z,99702.09
2022-11-25T01:39:09.188Z,99706.97
2022-11-25T01:41:36.100Z,99710.84
2022-11-25T01:44:27.635Z,99703.56
2022-11-25T01:47:12.568Z,99714.34
2022-11-25T01:49:47.474Z,99709.19
2022-11-25T01:52:19.863Z,99713.25
2022-11-25T01:54:59.712Z,99716.03
2022-11-25T01:57:32.328Z,99711.78
2022-11-25T02:00:01.924Z,99711.84
2022-11-25T02:02:29.348Z,99706.47
2022-11-25T02:04:57.916Z,99709.84
2022-11-25T02:07:32.083Z,99708.69
2022-11-25T02:10:00.531Z,99709.53
2022-11-25T02:12:28.543Z,99710.88
2022-11-25T02:14:57.171Z,99714.28
2022-11-25T02:17:24.250Z,99708.38
2022-11-25T02:20:21.574Z,99705.78
2022-11-25T02:22:50.875Z,99701.03
2022-11-25T02:25:20.533Z,99709.84
2022-11-25T02:27:52.027Z,99698.31
2022-11-25T02:30:19.034Z,99707.16
2022-11-25T02:32:47.589Z,99696.66
2022-11-25T02:35:26.170Z,99696.31
2022-11-25T02:37:55.280Z,99701.94
2022-11-25T02:40:22.952Z,99693.94
2022-11-25T02:42:51.369Z,99700.63
2022-11-25T02:45:22.783Z,99706.03
2022-11-25T02:47:49.319Z,99708.00
2022-11-25T02:50:15.962Z,99714.72
2022-11-25T02:52:42.869Z,99715.81
2022-11-25T02:55:09.532Z,99710.84
2022-11-25T02:57:36.121Z,99710.03
2022-11-25T03:00:03.195Z,99710.09
2022-11-25T03:02:29.995Z,99702.09
2022-11-25T03:04:56.703Z,99697.47
2022-11-25T03:07:23.271Z,99700.47
2022-11-25T03:09:49.885Z,99705.31
2022-11-25T03:12:19.375Z,99708.06
2022-11-25T03:14:46.069Z,99692.38
2022-11-25T03:17:12.561Z,99700.41
2022-11-25T03:19:39.400Z,99700.28
2022-11-25T03:22:07.064Z,99704.72
2022-11-25T03:24:34.086Z,99706.94
2022-11-25T03:27:01.011Z,99701.59
2022-11-25T03:29:27.551Z,99706.41
2022-11-25T03:31:54.099Z,99707.19
2022-11-25T03:34:20.796Z,99708.88
2022-11-25T03:36:47.311Z,99709.13
2022-11-25T03:39:14.011Z,99711.00
2022-11-25T03:41:40.788Z,99713.06
2022-11-25T03:44:07.285Z,99728.25
2022-11-25T03:46:33.794Z,99717.31
2022-11-25T03:49:00.461Z,99718.19
2022-11-25T03:51:26.965Z,99711.72
2022-11-25T03:53:53.798Z,99706.16
2022-11-25T03:56:20.548Z,99703.59
2022-11-25T03:58:47.024Z,99705.06
2022-11-25T04:01:13.729Z,99705.78
2022-11-25T04:03:40.566Z,99705.38
2022-11-25T04:06:07.210Z,99720.88
2022-11-25T04:08:33.724Z,99718.66
2022-11-25T04:11:00.470Z,99709.75
2022-11-25T04:13:26.959Z,99717.56
2022-11-25T04:15:53.480Z,99721.59
2022-11-25T04:18:20.392Z,99723.09
2022-11-25T04:20:47.194Z,99717.81
2022-11-25T04:23:14.374Z,99717.81
2022-11-25T04:25:41.203Z,99713.78
2022-11-25T04:28:07.727Z,99720.91
2022-11-25T04:30:34.336Z,99723.50
2022-11-25T04:33:01.679Z,99712.06
2022-11-25T04:35:28.211Z,99736.81
2022-11-25T04:37:54.888Z,99724.78
2022-11-25T04:40:21.705Z,99726.00
2022-11-25T04:42:48.267Z,99729.31
2022-11-25T04:45:24.849Z,99735.19
2022-11-25T04:47:52.053Z,99733.22
2022-11-25T04:50:22.415Z,99728.75
2022-11-25T04:52:48.910Z,99731.03
2022-11-25T04:55:15.783Z,99727.03
2022-11-25T04:57:42.331Z,99723.72
2022-11-25T05:00:09.796Z,99725.28
2022-11-25T05:02:36.681Z,99729.72
2022-11-25T05:05:03.392Z,99727.38
2022-11-25T05:07:29.985Z,99722.72
2022-11-25T05:09:57.385Z,99735.66
2022-11-25T05:12:27.616Z,99729.91
2022-11-25T05:14:54.396Z,99734.44
2022-11-25T05:17:26.671Z,99735.97
2022-11-25T05:19:53.495Z,99733.03
2022-11-25T05:22:23.688Z,99738.44
2022-11-25T05:24:50.457Z,99733.41
2022-11-25T05:27:18.033Z,99743.59
2022-11-25T05:29:44.923Z,99740.88
2022-11-25T05:32:11.842Z,99736.94
2022-11-25T05:34:39.116Z,99750.06
2022-11-25T05:37:06.373Z,99747.16
2022-11-25T05:39:33.090Z,99746.75
2022-11-25T05:41:59.833Z,99753.00
2022-11-25T05:44:26.815Z,99767.63
2022-11-25T05:46:53.875Z,99773.00
2022-11-25T05:49:21.067Z,99768.63
2022-11-25T05:51:47.958Z,99765.28
2022-11-25T05:54:14.591Z,99775.06
2022-11-25T05:56:41.278Z,99774.16
2022-11-25T05:59:07.826Z,99781.72
2022-11-25T06:01:34.402Z,99777.22
2022-11-25T06:04:01.704Z,99788.47
2022-11-25T06:06:28.304Z,99780.78
2022-11-25T06:08:55.052Z,99791.69
2022-11-25T06:11:21.556Z,99780.44
2022-11-25T06:13:48.599Z,99798.16
2022-11-25T06:16:18.140Z,99797.63
2022-11-25T06:18:45.095Z,99798.34
2022-11-25T06:21:12.379Z,99798.34
2022-11-25T06:23:39.439Z,99794.63
2022-11-25T06:26:07.685Z,99786.19
2022-11-25T06:28:34.403Z,99792.09
2022-11-25T06:31:06.511Z,99798.59
2022-11-25T06:33:33.121Z,99795.88
2022-11-25T06:35:59.612Z,99800.28
2022-11-25T06:38:26.260Z,99811.41
2022-11-25T06:40:54.217Z,99807.16
2022-11-25T06:43:22.951Z,99813.09
2022-11-25T06:45:49.850Z,99816.78
2022-11-25T06:48:16.335Z,99808.13
2022-11-25T06:50:42.892Z,99809.22
2022-11-25T06:53:09.601Z,99810.69
2022-11-25T06:55:36.090Z,99828.22
2022-11-25T06:58:28.296Z,99826.41
2022-11-25T07:00:49.349Z,99839.38
2022-11-25T07:03:15.867Z,99840.09
2022-11-25T07:05:42.359Z,99849.91
2022-11-25T07:08:08.900Z,99853.41
2022-11-25T07:10:35.428Z,99851.50
2022-11-25T07:13:01.895Z,99849.31
2022-11-25T07:15:28.537Z,99856.13
2022-11-25T07:17:55.016Z,99859.44
2022-11-25T07:20:21.528Z,99854.75
2022-11-25T07:22:48.109Z,99865.13
2022-11-25T07:25:14.685Z,99864.91
2022-11-25T07:27:41.176Z,99866.31
2022-11-25T07:30:54.824Z,99858.03
2022-11-25T07:32:55.570Z,99859.56
2022-11-25T07:35:22.186Z,99865.38
2022-11-25T07:37:48.703Z,99866.28
2022-11-25T07:40:15.352Z,99869.53
2022-11-25T07:42:41.921Z,99870.84
2022-11-25T07:45:08.965Z,99865.84
2022-11-25T07:47:35.574Z,99874.16
2022-11-25T07:50:02.146Z,99868.84
2022-11-25T07:52:28.647Z,99869.59
2022-11-25T07:54:55.165Z,99880.28
2022-11-25T07:57:22.093Z,99879.34
2022-11-25T07:59:48.621Z,99878.59
2022-11-25T08:02:15.436Z,99887.44
2022-11-25T08:04:42.532Z,99878.88
2022-11-25T08:07:10.899Z,99885.78
2022-11-25T08:09:37.807Z,99880.63
2022-11-25T08:12:04.942Z,99890.81
2022-11-25T08:14:31.596Z,99894.88
2022-11-25T08:16:58.456Z,99899.31
2022-11-25T08:19:31.176Z,99900.81
2022-11-25T08:21:58.140Z,99889.41
2022-11-25T08:24:24.941Z,99897.75
2022-11-25T08:26:52.279Z,99899.78
2022-11-25T08:29:19.818Z,99898.19
2022-11-25T08:31:46.718Z,99901.28
2022-11-25T08:34:23.027Z,99898.81
2022-11-25T08:36:49.609Z,99916.94
2022-11-25T08:39:44.062Z,99905.16
2022-11-25T08:42:05.697Z,99923.16
2022-11-25T08:44:32.273Z,99927.31
2022-11-25T08:46:58.958Z,99931.00
2022-11-25T08:49:27.155Z,99941.53
2022-11-25T08:51:53.882Z,99944.59
2022-11-25T08:54:20.462Z,99927.09
2022-11-25T08:56:47.076Z,99937.59
2022-11-25T08:59:13.672Z,99931.91
2022-11-25T17:04:12.551Z,100386.97
2022-11-25T17:06:39.326Z,100394.59
2022-11-25T17:09:05.812Z,100391.97
2022-11-25T17:11:36.183Z,100396.22
2022-11-25T17:14:06.746Z,100400.66
2022-11-25T17:16:33.594Z,100411.78
2022-11-25T17:19:00.783Z,100416.75
2022-11-25T17:21:29.011Z,100412.31
2022-11-25T17:24:00.696Z,100411.03
2022-11-25T17:26:38.596Z,100420.81
2022-11-25T17:29:08.864Z,100421.53
2022-11-25T17:31:37.752Z,100434.31
2022-11-25T17:34:04.748Z,100439.50
2022-11-25T17:36:31.545Z,100431.00
2022-11-25T17:38:58.094Z,100437.84
2022-11-25T17:41:27.010Z,100443.81
2022-11-25T17:43:54.341Z,100443.44
2022-11-25T17:46:21.579Z,100449.19
2022-11-25T17:48:48.219Z,100444.91
2022-11-25T17:51:14.942Z,100458.63
2022-11-25T17:53:41.960Z,100461.81
2022-11-25T17:56:24.717Z,100466.38
2022-11-25T17:58:54.788Z,100461.75
2022-11-25T18:01:21.507Z,100464.91
2022-11-25T18:03:53.155Z,100469.09
2022-11-25T18:06:21.052Z,100462.13
2022-11-25T18:08:47.580Z,100481.53
2022-11-25T18:11:18.306Z,100488.53
2022-11-25T18:13:46.984Z,100479.94
2022-11-25T18:16:17.154Z,100485.97
2022-11-25T18:18:43.839Z,100492.06
2022-11-25T18:21:11.712Z,100496.53
2022-11-25T18:23:38.207Z,100496.13
2022-11-25T18:26:05.210Z,100505.00
2022-11-25T18:28:32.541Z,100495.09
2022-11-25T18:31:03.423Z,100504.19
2022-11-25T18:33:30.265Z,100501.09
2022-11-25T18:35:57.304Z,100502.75
2022-11-25T18:38:23.914Z,100507.53
2022-11-25T18:40:53.738Z,100512.31
2022-11-25T18:43:24.828Z,100514.84
2022-11-25T18:45:53.535Z,100518.22
2022-11-25T18:48:25.846Z,100512.81
2022-11-25T18:50:54.948Z,100513.34
2022-11-25T18:53:21.742Z,100525.41
2022-11-25T18:55:49.543Z,100530.06
2022-11-25T18:58:19.605Z,100535.81
2022-11-25T19:00:48.640Z,100534.59
2022-11-25T19:03:23.542Z,100554.03
2022-11-25T19:05:50.687Z,100544.97
2022-11-25T19:08:18.668Z,100545.16
2022-11-25T19:10:47.194Z,100548.47
2022-11-25T19:13:21.667Z,100558.63
2022-11-25T19:15:48.658Z,100563.97
2022-11-25T19:18:19.605Z,100571.41
2022-11-25T19:20:46.083Z,100566.41
2022-11-25T19:23:28.243Z,100568.19
2022-11-25T19:25:59.922Z,100570.25
2022-11-25T19:28:27.552Z,100565.59
2022-11-25T19:31:00.172Z,100566.19
2022-11-25T19:33:31.683Z,100573.63
2022-11-25T19:35:58.532Z,100579.00
2022-11-25T19:38:26.208Z,100580.22
2022-11-25T19:40:54.857Z,100584.72
2022-11-25T19:43:22.771Z,100592.44
2022-11-25T19:45:53.731Z,100596.50
2022-11-25T19:48:21.754Z,100597.31
2022-11-25T19:50:59.067Z,100608.03
2022-11-25T19:53:31.781Z,100611.38
2022-11-25T19:56:04.410Z,100620.00
2022-11-25T19:58:31.494Z,100622.19
2022-11-25T20:01:02.314Z,100631.44
2022-11-25T20:03:31.369Z,100630.78
2022-11-25T20:05:58.488Z,100634.84
2022-11-25T20:08:27.638Z,100637.41
2022-11-25T20:10:55.631Z,100649.09
2022-11-25T20:13:26.267Z,100640.59
2022-11-25T20:15:54.211Z,100652.81
2022-11-25T20:18:22.996Z,100657.22
2022-11-25T20:21:03.769Z,100657.69
2022-11-25T20:23:43.391Z,100656.88
2022-11-25T20:26:32.092Z,100659.66
2022-11-25T20:28:58.754Z,100664.13
2022-11-25T20:31:30.192Z,100670.13
2022-11-25T20:33:57.126Z,100665.19
2022-11-25T20:36:29.285Z,100679.13
2022-11-25T20:38:57.805Z,100683.78
2022-11-25T20:41:27.715Z,100690.03
2022-11-25T20:43:55.209Z,100684.63
2022-11-25T20:46:23.972Z,100687.19
2022-11-25T20:48:56.609Z,100684.44
2022-11-25T20:51:24.275Z,100678.00
2022-11-25T20:53:53.235Z,100682.31
2022-11-25T20:56:23.083Z,100691.16
2022-11-25T20:58:49.738Z,100694.44
2022-11-25T21:01:18.959Z,100695.53
2022-11-25T21:03:46.889Z,100700.84
2022-11-25T21:06:21.802Z,100700.78
2022-11-25T21:08:50.607Z,100708.59
2022-11-25T21:11:18.183Z,100707.00
2022-11-25T21:13:45.653Z,100706.03
2022-11-25T21:16:12.590Z,100715.66
2022-11-25T21:18:41.300Z,100713.09
2022-11-25T21:21:16.628Z,100721.81
2022-11-25T21:23:44.254Z,100731.00
2022-11-25T21:26:18.355Z,100720.56
2022-11-25T21:28:47.114Z,100733.69
2022-11-25T21:31:22.904Z,100722.28
2022-11-25T21:33:50.592Z,100732.06
2022-11-25T21:36:21.512Z,100729.34
2022-11-25T21:38:51.029Z,100734.81
2022-11-25T21:41:18.806Z,100740.38
2022-11-25T21:43:48.717Z,100738.41
2022-11-25T21:46:25.227Z,100736.38
2022-11-25T21:48:51.946Z,100739.47
2022-11-25T21:51:21.805Z,100747.88
2022-11-25T21:53:50.967Z,100747.47
2022-11-25T21:56:25.586Z,100748.78
2022-11-25T21:58:52.430Z,100759.28
2022-11-25T22:01:19.442Z,100760.03
2022-11-25T22:03:45.940Z,100765.69
2022-11-25T22:06:24.185Z,100768.88
2022-11-25T22:08:51.261Z,100775.06
2022-11-25T22:11:21.936Z,100780.09
2022-11-25T22:13:49.725Z,100783.06
2022-11-25T22:16:23.191Z,100784.88
2022-11-25T22:18:50.067Z,100785.63
2022-11-25T22:21:16.943Z,100799.28
2022-11-25T22:23:43.485Z,100797.13
2022-11-25T22:26:21.637Z,100803.06
2022-11-25T22:28:51.232Z,100804.41
2022-11-25T22:31:19.096Z,100797.88
2022-11-25T22:33:46.191Z,100807.41
2022-11-25T22:36:39.926Z,100809.09
2022-11-25T22:39:14.580Z,100809.41
2022-11-25T22:41:53.972Z,100815.91
2022-11-25T22:44:37.897Z,100820.63
2022-11-25T22:47:04.934Z,100819.53
2022-11-25T22:49:35.824Z,100819.94
2022-11-25T22:52:02.829Z,100825.50
2022-11-25T22:54:29.491Z,100819.94
2022-11-25T22:56:57.066Z,100821.22
2022-11-25T22:59:23.929Z,100823.13
2022-11-25T23:01:50.516Z,100832.66
2022-11-25T23:04:19.175Z,100834.66
2022-11-25T23:06:46.656Z,100846.84
2022-11-25T23:09:15.868Z,100847.28
2022-11-25T23:11:42.566Z,100847.69
2022-11-25T23:14:09.664Z,100848.78
2022-11-25T23:16:36.412Z,100850.47
2022-11-25T23:19:04.708Z,100846.22
2022-11-25T23:21:31.651Z,100850.13
2022-11-25T23:23:58.162Z,100853.41
2022-11-25T23:26:28.766Z,100849.91
2022-11-25T23:28:58.827Z,100851.00
2022-11-25T23:31:25.686Z,100860.25
2022-11-25T23:33:52.462Z,100856.59
2022-11-25T23:36:19.048Z,100861.22
2022-11-25T23:38:49.910Z,100854.84
2022-11-25T23:41:25.995Z,100857.25
2022-11-25T23:43:53.108Z,100860.72
2022-11-25T23:46:23.994Z,100862.16
2022-11-25T23:48:57.455Z,100862.44
2022-11-25T23:51:26.536Z,100867.50
2022-11-25T23:53:54.446Z,100864.72
2022-11-25T23:56:21.411Z,100866.00
2022-11-25T23:58:49.488Z,100877.22
